Kezdőlap
METAR-TAF:

METAR-TAF

Repülőterek :

Hazleton, Pennsylvania, Amerikai Egyesült Államok

földrajzi szélesség: 40-59-12N, földrajzi hosszúság: 075-59-42W, magasság: 489 m

Jelenlegi meteorológiai megfigyelések

A jelentés 14 perccel ezelõtt készült, 15:55 UTC
Északi szél 3 kt
Hőmérséklet 10°C
Páratartalom 50%
Légköri nyomás 1020 hPa
Látótávolság: 16.1 km
Szórványos felhőzet 3100 lábon

METAR: KHZL 061555Z AUTO 36003KT 10SM SCT031 10/00 A3011 RMK AO2

Idő: 12:09 (16:09 UTC)


TAF: hiányzik

Meteorológiai megfigyelések és előrejelzések több, mint 4000 repülőtéren (METAR és TAF jelentéseket).

A térképen piros és sárga pontok jelzik az elérhető meteorológiai állomásokat.

Mozgassa az egeret a pont fölött, hogy megjelenjen az állomás neve.

Azután kattintson az időjárási megfigyelések és előrejelzések megtekintéséhez.

A térkép megváltoztatása: kattintson a fekete keresztel jelölt zöld gombra ráközelítéshez, a vonallal jelölt zöld gombra távolításhoz, vagy a zöld nyilakra a szomszédos térképek eléréséhez.


METAR-TAF: